sensor_id;sensor_type;location;lat;lon;timestamp;P1;durP1;ratioP1;P2;durP2;ratioP2
17842;SDS011;69286;48.222;16.332;2024-01-30T00:01:09;27.33;;;14.97;;
17842;SDS011;69286;48.222;16.332;2024-01-30T00:03:38;31.53;;;14.60;;
17842;SDS011;69286;48.222;16.332;2024-01-30T00:06:05;25.87;;;14.73;;
17842;SDS011;69286;48.222;16.332;2024-01-30T00:08:33;26.13;;;15.47;;
17842;SDS011;69286;48.222;16.332;2024-01-30T00:11:00;32.90;;;15.63;;
17842;SDS011;69286;48.222;16.332;2024-01-30T00:13:27;29.90;;;15.10;;
17842;SDS011;69286;48.222;16.332;2024-01-30T00:15:54;33.33;;;15.33;;
17842;SDS011;69286;48.222;16.332;2024-01-30T00:18:21;42.23;;;17.47;;
17842;SDS011;69286;48.222;16.332;2024-01-30T00:20:49;28.43;;;14.60;;
17842;SDS011;69286;48.222;16.332;2024-01-30T00:23:16;27.63;;;15.07;;
17842;SDS011;69286;48.222;16.332;2024-01-30T00:25:43;29.83;;;15.67;;
17842;SDS011;69286;48.222;16.332;2024-01-30T00:28:10;28.97;;;15.30;;
17842;SDS011;69286;48.222;16.332;2024-01-30T00:30:36;35.50;;;16.67;;
17842;SDS011;69286;48.222;16.332;2024-01-30T00:33:04;35.67;;;16.60;;
17842;SDS011;69286;48.222;16.332;2024-01-30T00:35:31;29.07;;;15.43;;
17842;SDS011;69286;48.222;16.332;2024-01-30T00:37:59;30.67;;;15.00;;
17842;SDS011;69286;48.222;16.332;2024-01-30T00:40:26;33.93;;;15.87;;
17842;SDS011;69286;48.222;16.332;2024-01-30T00:42:53;39.77;;;17.97;;
17842;SDS011;69286;48.222;16.332;2024-01-30T00:45:20;36.53;;;17.83;;
17842;SDS011;69286;48.222;16.332;2024-01-30T00:47:47;33.10;;;16.33;;
17842;SDS011;69286;48.222;16.332;2024-01-30T00:50:14;43.17;;;18.67;;
17842;SDS011;69286;48.222;16.332;2024-01-30T00:52:41;52.67;;;21.63;;
17842;SDS011;69286;48.222;16.332;2024-01-30T00:55:11;38.57;;;18.40;;
17842;SDS011;69286;48.222;16.332;2024-01-30T00:57:39;39.87;;;18.00;;
17842;SDS011;69286;48.222;16.332;2024-01-30T01:00:07;49.07;;;20.47;;
17842;SDS011;69286;48.222;16.332;2024-01-30T01:02:34;38.67;;;18.33;;
17842;SDS011;69286;48.222;16.332;2024-01-30T01:05:01;45.63;;;18.60;;
17842;SDS011;69286;48.222;16.332;2024-01-30T01:07:29;41.93;;;15.43;;
17842;SDS011;69286;48.222;16.332;2024-01-30T01:09:56;38.40;;;17.70;;
17842;SDS011;69286;48.222;16.332;2024-01-30T01:12:25;34.40;;;16.57;;
17842;SDS011;69286;48.222;16.332;2024-01-30T01:14:52;31.40;;;16.27;;
17842;SDS011;69286;48.222;16.332;2024-01-30T01:17:19;28.50;;;15.40;;
17842;SDS011;69286;48.222;16.332;2024-01-30T01:19:45;28.33;;;16.27;;
17842;SDS011;69286;48.222;16.332;2024-01-30T01:22:12;33.97;;;16.90;;
17842;SDS011;69286;48.222;16.332;2024-01-30T01:24:39;29.27;;;15.90;;
17842;SDS011;69286;48.222;16.332;2024-01-30T01:27:07;36.40;;;17.57;;
17842;SDS011;69286;48.222;16.332;2024-01-30T01:29:35;39.53;;;18.83;;
17842;SDS011;69286;48.222;16.332;2024-01-30T01:32:02;31.13;;;16.70;;
17842;SDS011;69286;48.222;16.332;2024-01-30T01:34:29;30.43;;;15.57;;
17842;SDS011;69286;48.222;16.332;2024-01-30T01:36:56;31.70;;;15.73;;
17842;SDS011;69286;48.222;16.332;2024-01-30T01:39:23;26.43;;;14.20;;
17842;SDS011;69286;48.222;16.332;2024-01-30T01:41:50;27.63;;;14.83;;
17842;SDS011;69286;48.222;16.332;2024-01-30T01:44:17;30.13;;;16.57;;
17842;SDS011;69286;48.222;16.332;2024-01-30T01:46:46;28.70;;;15.77;;
17842;SDS011;69286;48.222;16.332;2024-01-30T01:49:13;26.73;;;15.47;;
17842;SDS011;69286;48.222;16.332;2024-01-30T01:51:41;27.67;;;14.90;;
17842;SDS011;69286;48.222;16.332;2024-01-30T01:54:09;28.70;;;14.57;;
17842;SDS011;69286;48.222;16.332;2024-01-30T01:56:37;36.40;;;16.07;;
17842;SDS011;69286;48.222;16.332;2024-01-30T01:59:05;28.27;;;15.10;;
17842;SDS011;69286;48.222;16.332;2024-01-30T02:01:33;23.80;;;14.10;;
17842;SDS011;69286;48.222;16.332;2024-01-30T02:04:02;30.10;;;15.70;;
17842;SDS011;69286;48.222;16.332;2024-01-30T02:06:29;24.30;;;14.87;;
17842;SDS011;69286;48.222;16.332;2024-01-30T02:08:56;30.00;;;14.80;;
17842;SDS011;69286;48.222;16.332;2024-01-30T02:11:23;27.70;;;14.53;;
17842;SDS011;69286;48.222;16.332;2024-01-30T02:13:50;29.40;;;15.67;;
17842;SDS011;69286;48.222;16.332;2024-01-30T02:16:17;29.77;;;14.53;;
17842;SDS011;69286;48.222;16.332;2024-01-30T02:18:44;28.97;;;15.37;;
17842;SDS011;69286;48.222;16.332;2024-01-30T02:21:14;23.67;;;14.23;;
17842;SDS011;69286;48.222;16.332;2024-01-30T02:23:43;29.60;;;14.83;;
17842;SDS011;69286;48.222;16.332;2024-01-30T02:26:10;30.70;;;15.10;;
17842;SDS011;69286;48.222;16.332;2024-01-30T02:28:37;23.83;;;14.03;;
17842;SDS011;69286;48.222;16.332;2024-01-30T02:31:04;32.87;;;16.33;;
17842;SDS011;69286;48.222;16.332;2024-01-30T02:33:31;25.80;;;14.50;;
17842;SDS011;69286;48.222;16.332;2024-01-30T02:35:58;26.83;;;14.27;;
17842;SDS011;69286;48.222;16.332;2024-01-30T02:38:27;24.80;;;14.57;;
17842;SDS011;69286;48.222;16.332;2024-01-30T02:40:54;30.10;;;14.63;;
17842;SDS011;69286;48.222;16.332;2024-01-30T02:43:22;26.73;;;14.50;;
17842;SDS011;69286;48.222;16.332;2024-01-30T02:45:49;28.93;;;16.33;;
17842;SDS011;69286;48.222;16.332;2024-01-30T02:48:16;24.83;;;14.10;;
17842;SDS011;69286;48.222;16.332;2024-01-30T02:50:43;28.03;;;14.17;;
17842;SDS011;69286;48.222;16.332;2024-01-30T02:53:11;31.03;;;15.40;;
17842;SDS011;69286;48.222;16.332;2024-01-30T02:55:39;26.43;;;14.57;;
17842;SDS011;69286;48.222;16.332;2024-01-30T02:58:06;27.70;;;14.47;;
17842;SDS011;69286;48.222;16.332;2024-01-30T03:00:33;23.13;;;14.00;;
17842;SDS011;69286;48.222;16.332;2024-01-30T03:03:00;24.00;;;14.33;;
17842;SDS011;69286;48.222;16.332;2024-01-30T03:05:28;26.90;;;15.70;;
17842;SDS011;69286;48.222;16.332;2024-01-30T03:07:55;29.97;;;14.63;;
17842;SDS011;69286;48.222;16.332;2024-01-30T03:10:22;29.40;;;14.53;;
17842;SDS011;69286;48.222;16.332;2024-01-30T03:12:50;25.20;;;14.03;;
17842;SDS011;69286;48.222;16.332;2024-01-30T03:15:17;27.40;;;14.53;;
17842;SDS011;69286;48.222;16.332;2024-01-30T03:17:44;23.20;;;13.00;;
17842;SDS011;69286;48.222;16.332;2024-01-30T03:20:11;24.40;;;14.03;;
17842;SDS011;69286;48.222;16.332;2024-01-30T03:22:38;21.87;;;13.77;;
17842;SDS011;69286;48.222;16.332;2024-01-30T03:25:05;27.43;;;14.73;;
17842;SDS011;69286;48.222;16.332;2024-01-30T03:27:33;23.30;;;14.17;;
17842;SDS011;69286;48.222;16.332;2024-01-30T03:30:01;26.47;;;15.07;;
17842;SDS011;69286;48.222;16.332;2024-01-30T03:32:28;27.77;;;15.23;;
17842;SDS011;69286;48.222;16.332;2024-01-30T03:34:55;24.30;;;14.37;;
17842;SDS011;69286;48.222;16.332;2024-01-30T03:37:23;28.30;;;14.97;;
17842;SDS011;69286;48.222;16.332;2024-01-30T03:39:50;25.33;;;14.50;;
17842;SDS011;69286;48.222;16.332;2024-01-30T03:42:17;27.83;;;14.90;;
17842;SDS011;69286;48.222;16.332;2024-01-30T03:44:44;28.83;;;15.40;;
17842;SDS011;69286;48.222;16.332;2024-01-30T03:47:12;27.93;;;15.37;;
17842;SDS011;69286;48.222;16.332;2024-01-30T03:49:39;23.63;;;14.77;;
17842;SDS011;69286;48.222;16.332;2024-01-30T03:52:06;29.80;;;15.33;;
17842;SDS011;69286;48.222;16.332;2024-01-30T03:54:33;24.80;;;15.10;;
17842;SDS011;69286;48.222;16.332;2024-01-30T03:57:00;31.30;;;16.13;;
17842;SDS011;69286;48.222;16.332;2024-01-30T03:59:27;26.27;;;16.60;;
17842;SDS011;69286;48.222;16.332;2024-01-30T04:01:54;31.70;;;15.60;;
17842;SDS011;69286;48.222;16.332;2024-01-30T04:04:22;29.20;;;16.10;;
17842;SDS011;69286;48.222;16.332;2024-01-30T04:06:49;26.87;;;15.77;;
17842;SDS011;69286;48.222;16.332;2024-01-30T04:09:16;29.67;;;15.20;;
17842;SDS011;69286;48.222;16.332;2024-01-30T04:11:43;33.40;;;16.70;;
17842;SDS011;69286;48.222;16.332;2024-01-30T04:14:10;29.83;;;16.67;;
17842;SDS011;69286;48.222;16.332;2024-01-30T04:16:37;29.03;;;15.73;;
17842;SDS011;69286;48.222;16.332;2024-01-30T04:19:04;26.97;;;15.83;;
17842;SDS011;69286;48.222;16.332;2024-01-30T04:21:33;30.37;;;15.93;;
17842;SDS011;69286;48.222;16.332;2024-01-30T04:23:59;35.87;;;18.57;;
17842;SDS011;69286;48.222;16.332;2024-01-30T04:26:26;33.10;;;17.00;;
17842;SDS011;69286;48.222;16.332;2024-01-30T04:28:53;31.60;;;16.93;;
17842;SDS011;69286;48.222;16.332;2024-01-30T04:31:21;32.63;;;17.27;;
17842;SDS011;69286;48.222;16.332;2024-01-30T04:33:48;33.13;;;17.40;;
17842;SDS011;69286;48.222;16.332;2024-01-30T04:36:15;38.17;;;19.33;;
17842;SDS011;69286;48.222;16.332;2024-01-30T04:38:43;37.73;;;18.33;;
17842;SDS011;69286;48.222;16.332;2024-01-30T04:41:10;34.90;;;18.23;;
17842;SDS011;69286;48.222;16.332;2024-01-30T04:43:37;35.50;;;17.40;;
17842;SDS011;69286;48.222;16.332;2024-01-30T04:46:04;30.77;;;17.23;;
17842;SDS011;69286;48.222;16.332;2024-01-30T04:48:31;34.97;;;18.17;;
17842;SDS011;69286;48.222;16.332;2024-01-30T04:50:58;36.07;;;19.33;;
17842;SDS011;69286;48.222;16.332;2024-01-30T04:53:28;39.30;;;18.97;;
17842;SDS011;69286;48.222;16.332;2024-01-30T04:55:57;36.30;;;19.30;;
17842;SDS011;69286;48.222;16.332;2024-01-30T04:58:24;37.17;;;18.23;;
17842;SDS011;69286;48.222;16.332;2024-01-30T05:00:51;42.50;;;19.23;;
17842;SDS011;69286;48.222;16.332;2024-01-30T05:03:18;34.37;;;18.03;;
17842;SDS011;69286;48.222;16.332;2024-01-30T05:05:47;32.50;;;18.13;;
17842;SDS011;69286;48.222;16.332;2024-01-30T05:08:14;41.33;;;19.90;;
17842;SDS011;69286;48.222;16.332;2024-01-30T05:10:41;33.20;;;17.37;;
17842;SDS011;69286;48.222;16.332;2024-01-30T05:13:09;38.17;;;19.37;;
17842;SDS011;69286;48.222;16.332;2024-01-30T05:15:38;38.10;;;18.63;;
17842;SDS011;69286;48.222;16.332;2024-01-30T05:18:06;31.27;;;20.27;;
17842;SDS011;69286;48.222;16.332;2024-01-30T05:20:33;42.70;;;18.50;;
17842;SDS011;69286;48.222;16.332;2024-01-30T05:23:00;36.77;;;18.27;;
17842;SDS011;69286;48.222;16.332;2024-01-30T05:25:27;32.17;;;17.83;;
17842;SDS011;69286;48.222;16.332;2024-01-30T05:27:54;30.07;;;18.30;;
17842;SDS011;69286;48.222;16.332;2024-01-30T05:30:23;36.63;;;19.23;;
17842;SDS011;69286;48.222;16.332;2024-01-30T05:32:50;34.33;;;19.23;;
17842;SDS011;69286;48.222;16.332;2024-01-30T05:35:17;35.03;;;19.10;;
17842;SDS011;69286;48.222;16.332;2024-01-30T05:37:46;32.07;;;18.83;;
17842;SDS011;69286;48.222;16.332;2024-01-30T05:40:14;35.93;;;18.97;;
17842;SDS011;69286;48.222;16.332;2024-01-30T05:42:42;34.00;;;19.13;;
17842;SDS011;69286;48.222;16.332;2024-01-30T05:45:09;35.50;;;19.13;;
17842;SDS011;69286;48.222;16.332;2024-01-30T05:47:37;36.23;;;17.13;;
17842;SDS011;69286;48.222;16.332;2024-01-30T05:50:05;33.07;;;18.13;;
17842;SDS011;69286;48.222;16.332;2024-01-30T05:52:33;35.17;;;19.57;;
17842;SDS011;69286;48.222;16.332;2024-01-30T05:55:00;32.43;;;18.40;;
17842;SDS011;69286;48.222;16.332;2024-01-30T05:57:27;34.83;;;18.20;;
17842;SDS011;69286;48.222;16.332;2024-01-30T05:59:54;33.33;;;17.97;;
17842;SDS011;69286;48.222;16.332;2024-01-30T06:02:21;35.33;;;18.53;;
17842;SDS011;69286;48.222;16.332;2024-01-30T06:04:49;33.27;;;18.03;;
17842;SDS011;69286;48.222;16.332;2024-01-30T06:07:16;40.23;;;19.00;;
17842;SDS011;69286;48.222;16.332;2024-01-30T06:09:43;36.10;;;18.63;;
17842;SDS011;69286;48.222;16.332;2024-01-30T06:12:11;38.13;;;17.43;;
17842;SDS011;69286;48.222;16.332;2024-01-30T06:14:38;35.67;;;19.80;;
17842;SDS011;69286;48.222;16.332;2024-01-30T06:17:07;40.13;;;18.57;;
17842;SDS011;69286;48.222;16.332;2024-01-30T06:19:34;32.37;;;17.37;;
17842;SDS011;69286;48.222;16.332;2024-01-30T06:22:06;32.30;;;17.57;;
17842;SDS011;69286;48.222;16.332;2024-01-30T06:24:33;36.23;;;17.57;;
17842;SDS011;69286;48.222;16.332;2024-01-30T06:27:00;35.40;;;17.67;;
17842;SDS011;69286;48.222;16.332;2024-01-30T06:29:27;33.40;;;18.23;;
17842;SDS011;69286;48.222;16.332;2024-01-30T06:31:54;36.33;;;17.27;;
17842;SDS011;69286;48.222;16.332;2024-01-30T06:34:22;30.87;;;17.47;;
17842;SDS011;69286;48.222;16.332;2024-01-30T06:36:49;35.43;;;17.70;;
17842;SDS011;69286;48.222;16.332;2024-01-30T06:39:17;32.13;;;17.30;;
17842;SDS011;69286;48.222;16.332;2024-01-30T06:41:44;27.67;;;16.17;;
17842;SDS011;69286;48.222;16.332;2024-01-30T06:44:12;28.73;;;16.43;;
17842;SDS011;69286;48.222;16.332;2024-01-30T06:46:39;37.53;;;15.97;;
17842;SDS011;69286;48.222;16.332;2024-01-30T06:49:06;32.97;;;17.77;;
17842;SDS011;69286;48.222;16.332;2024-01-30T06:51:33;33.77;;;17.90;;
17842;SDS011;69286;48.222;16.332;2024-01-30T06:53:59;33.23;;;17.63;;
17842;SDS011;69286;48.222;16.332;2024-01-30T06:56:28;36.53;;;18.27;;
17842;SDS011;69286;48.222;16.332;2024-01-30T06:58:55;37.40;;;18.00;;
17842;SDS011;69286;48.222;16.332;2024-01-30T07:01:27;30.90;;;16.20;;
17842;SDS011;69286;48.222;16.332;2024-01-30T07:03:54;31.70;;;17.70;;
17842;SDS011;69286;48.222;16.332;2024-01-30T07:06:21;33.27;;;18.20;;
17842;SDS011;69286;48.222;16.332;2024-01-30T07:08:48;28.87;;;16.93;;
17842;SDS011;69286;48.222;16.332;2024-01-30T07:11:18;30.73;;;16.90;;
17842;SDS011;69286;48.222;16.332;2024-01-30T07:13:46;37.07;;;17.77;;
17842;SDS011;69286;48.222;16.332;2024-01-30T07:16:13;32.50;;;17.37;;
17842;SDS011;69286;48.222;16.332;2024-01-30T07:18:40;28.23;;;15.13;;
17842;SDS011;69286;48.222;16.332;2024-01-30T07:21:07;31.73;;;16.10;;
17842;SDS011;69286;48.222;16.332;2024-01-30T07:23:35;37.07;;;17.00;;
17842;SDS011;69286;48.222;16.332;2024-01-30T07:26:03;36.60;;;16.90;;
17842;SDS011;69286;48.222;16.332;2024-01-30T07:28:31;32.43;;;16.07;;
17842;SDS011;69286;48.222;16.332;2024-01-30T07:31:00;33.03;;;15.80;;
17842;SDS011;69286;48.222;16.332;2024-01-30T07:33:27;28.60;;;15.10;;
17842;SDS011;69286;48.222;16.332;2024-01-30T07:35:54;30.63;;;16.57;;
17842;SDS011;69286;48.222;16.332;2024-01-30T07:38:22;32.20;;;16.17;;
17842;SDS011;69286;48.222;16.332;2024-01-30T07:40:49;27.60;;;15.97;;
17842;SDS011;69286;48.222;16.332;2024-01-30T07:43:16;37.47;;;17.17;;
17842;SDS011;69286;48.222;16.332;2024-01-30T07:45:44;33.63;;;16.27;;
17842;SDS011;69286;48.222;16.332;2024-01-30T07:48:13;38.17;;;16.50;;
17842;SDS011;69286;48.222;16.332;2024-01-30T07:50:40;37.23;;;16.00;;
17842;SDS011;69286;48.222;16.332;2024-01-30T07:53:07;31.83;;;16.93;;
17842;SDS011;69286;48.222;16.332;2024-01-30T07:55:55;34.13;;;16.67;;
17842;SDS011;69286;48.222;16.332;2024-01-30T07:58:22;32.73;;;15.40;;
17842;SDS011;69286;48.222;16.332;2024-01-30T08:00:49;27.07;;;15.23;;
17842;SDS011;69286;48.222;16.332;2024-01-30T08:03:19;30.50;;;15.87;;
17842;SDS011;69286;48.222;16.332;2024-01-30T08:05:46;29.60;;;15.63;;
17842;SDS011;69286;48.222;16.332;2024-01-30T08:08:13;33.10;;;16.07;;
17842;SDS011;69286;48.222;16.332;2024-01-30T08:10:40;25.83;;;13.50;;
17842;SDS011;69286;48.222;16.332;2024-01-30T08:13:07;25.80;;;14.37;;
17842;SDS011;69286;48.222;16.332;2024-01-30T08:15:34;32.27;;;15.77;;
17842;SDS011;69286;48.222;16.332;2024-01-30T08:18:01;28.93;;;14.63;;
17842;SDS011;69286;48.222;16.332;2024-01-30T08:20:31;32.30;;;15.83;;
17842;SDS011;69286;48.222;16.332;2024-01-30T08:22:58;25.83;;;14.17;;
17842;SDS011;69286;48.222;16.332;2024-01-30T08:25:25;34.33;;;15.60;;
17842;SDS011;69286;48.222;16.332;2024-01-30T08:27:52;27.27;;;14.67;;
17842;SDS011;69286;48.222;16.332;2024-01-30T08:30:19;24.83;;;14.00;;
17842;SDS011;69286;48.222;16.332;2024-01-30T08:32:46;27.80;;;15.23;;
17842;SDS011;69286;48.222;16.332;2024-01-30T08:35:13;23.93;;;14.57;;
17842;SDS011;69286;48.222;16.332;2024-01-30T08:37:42;31.60;;;14.63;;
17842;SDS011;69286;48.222;16.332;2024-01-30T08:40:09;24.43;;;14.10;;
17842;SDS011;69286;48.222;16.332;2024-01-30T08:42:36;25.30;;;14.67;;
17842;SDS011;69286;48.222;16.332;2024-01-30T08:45:04;28.10;;;15.63;;
17842;SDS011;69286;48.222;16.332;2024-01-30T08:47:31;29.33;;;14.17;;
17842;SDS011;69286;48.222;16.332;2024-01-30T08:49:59;25.13;;;15.50;;
17842;SDS011;69286;48.222;16.332;2024-01-30T08:52:26;28.20;;;15.13;;
17842;SDS011;69286;48.222;16.332;2024-01-30T08:54:54;26.63;;;14.17;;
17842;SDS011;69286;48.222;16.332;2024-01-30T08:57:21;38.60;;;14.87;;
17842;SDS011;69286;48.222;16.332;2024-01-30T08:59:48;25.47;;;14.20;;
17842;SDS011;69286;48.222;16.332;2024-01-30T09:02:15;25.03;;;14.37;;
17842;SDS011;69286;48.222;16.332;2024-01-30T09:04:43;26.73;;;14.53;;
17842;SDS011;69286;48.222;16.332;2024-01-30T09:07:10;28.83;;;14.70;;
17842;SDS011;69286;48.222;16.332;2024-01-30T09:09:38;26.87;;;13.57;;
17842;SDS011;69286;48.222;16.332;2024-01-30T09:12:07;26.17;;;14.20;;
17842;SDS011;69286;48.222;16.332;2024-01-30T09:14:37;25.57;;;13.87;;
17842;SDS011;69286;48.222;16.332;2024-01-30T09:17:04;24.87;;;14.50;;
17842;SDS011;69286;48.222;16.332;2024-01-30T09:19:31;28.83;;;14.63;;
17842;SDS011;69286;48.222;16.332;2024-01-30T09:21:58;28.57;;;13.73;;
17842;SDS011;69286;48.222;16.332;2024-01-30T09:24:25;24.23;;;14.00;;
17842;SDS011;69286;48.222;16.332;2024-01-30T09:26:53;25.40;;;14.07;;
17842;SDS011;69286;48.222;16.332;2024-01-30T09:29:21;26.47;;;14.03;;
17842;SDS011;69286;48.222;16.332;2024-01-30T09:31:48;22.73;;;13.90;;
17842;SDS011;69286;48.222;16.332;2024-01-30T09:34:15;22.03;;;14.07;;
17842;SDS011;69286;48.222;16.332;2024-01-30T09:36:42;24.57;;;13.83;;
17842;SDS011;69286;48.222;16.332;2024-01-30T09:39:09;23.93;;;14.20;;
17842;SDS011;69286;48.222;16.332;2024-01-30T09:41:37;23.73;;;13.63;;
17842;SDS011;69286;48.222;16.332;2024-01-30T09:44:11;26.23;;;14.30;;
17842;SDS011;69286;48.222;16.332;2024-01-30T09:46:40;21.80;;;13.43;;
17842;SDS011;69286;48.222;16.332;2024-01-30T09:49:08;24.00;;;13.60;;
17842;SDS011;69286;48.222;16.332;2024-01-30T09:51:36;25.63;;;13.40;;
17842;SDS011;69286;48.222;16.332;2024-01-30T09:54:03;25.63;;;13.90;;
17842;SDS011;69286;48.222;16.332;2024-01-30T09:56:30;24.97;;;13.47;;
17842;SDS011;69286;48.222;16.332;2024-01-30T09:58:57;23.77;;;13.00;;
17842;SDS011;69286;48.222;16.332;2024-01-30T10:01:24;25.83;;;12.93;;
17842;SDS011;69286;48.222;16.332;2024-01-30T10:03:54;20.77;;;12.17;;
17842;SDS011;69286;48.222;16.332;2024-01-30T10:06:21;20.33;;;12.33;;
17842;SDS011;69286;48.222;16.332;2024-01-30T10:08:50;27.10;;;14.17;;
17842;SDS011;69286;48.222;16.332;2024-01-30T10:11:17;28.87;;;13.17;;
17842;SDS011;69286;48.222;16.332;2024-01-30T10:13:44;21.60;;;12.10;;
17842;SDS011;69286;48.222;16.332;2024-01-30T10:16:13;22.43;;;12.43;;
17842;SDS011;69286;48.222;16.332;2024-01-30T10:18:41;22.53;;;12.50;;
17842;SDS011;69286;48.222;16.332;2024-01-30T10:21:09;29.23;;;13.17;;
17842;SDS011;69286;48.222;16.332;2024-01-30T10:23:36;22.60;;;12.33;;
17842;SDS011;69286;48.222;16.332;2024-01-30T10:26:03;25.03;;;13.53;;
17842;SDS011;69286;48.222;16.332;2024-01-30T10:28:30;21.17;;;12.33;;
17842;SDS011;69286;48.222;16.332;2024-01-30T10:30:57;25.70;;;12.53;;
17842;SDS011;69286;48.222;16.332;2024-01-30T10:33:25;24.63;;;13.43;;
17842;SDS011;69286;48.222;16.332;2024-01-30T10:35:54;30.20;;;12.77;;
17842;SDS011;69286;48.222;16.332;2024-01-30T10:38:26;23.13;;;12.33;;
17842;SDS011;69286;48.222;16.332;2024-01-30T10:40:56;25.17;;;12.30;;
17842;SDS011;69286;48.222;16.332;2024-01-30T10:43:24;23.37;;;12.03;;
17842;SDS011;69286;48.222;16.332;2024-01-30T10:45:57;21.20;;;12.33;;
17842;SDS011;69286;48.222;16.332;2024-01-30T10:48:29;20.33;;;12.80;;
17842;SDS011;69286;48.222;16.332;2024-01-30T10:50:59;23.60;;;12.73;;
17842;SDS011;69286;48.222;16.332;2024-01-30T10:53:29;24.00;;;13.00;;
17842;SDS011;69286;48.222;16.332;2024-01-30T10:55:57;28.10;;;12.53;;
17842;SDS011;69286;48.222;16.332;2024-01-30T10:58:25;24.13;;;12.67;;
17842;SDS011;69286;48.222;16.332;2024-01-30T11:00:54;25.63;;;12.90;;
17842;SDS011;69286;48.222;16.332;2024-01-30T11:03:21;19.43;;;12.13;;
17842;SDS011;69286;48.222;16.332;2024-01-30T11:05:49;19.53;;;11.90;;
17842;SDS011;69286;48.222;16.332;2024-01-30T11:08:22;26.57;;;12.73;;
17842;SDS011;69286;48.222;16.332;2024-01-30T11:10:56;23.23;;;12.53;;
17842;SDS011;69286;48.222;16.332;2024-01-30T11:13:26;24.00;;;12.13;;
17842;SDS011;69286;48.222;16.332;2024-01-30T11:15:54;26.50;;;13.27;;
17842;SDS011;69286;48.222;16.332;2024-01-30T11:18:24;22.30;;;12.20;;
17842;SDS011;69286;48.222;16.332;2024-01-30T11:20:52;17.33;;;11.07;;
17842;SDS011;69286;48.222;16.332;2024-01-30T11:23:22;20.47;;;11.70;;
17842;SDS011;69286;48.222;16.332;2024-01-30T11:25:49;24.07;;;12.10;;
17842;SDS011;69286;48.222;16.332;2024-01-30T11:28:19;22.40;;;12.63;;
17842;SDS011;69286;48.222;16.332;2024-01-30T11:30:48;21.37;;;11.93;;
17842;SDS011;69286;48.222;16.332;2024-01-30T11:33:26;23.73;;;12.83;;
17842;SDS011;69286;48.222;16.332;2024-01-30T11:35:56;22.17;;;12.03;;
17842;SDS011;69286;48.222;16.332;2024-01-30T11:38:25;27.13;;;11.27;;
17842;SDS011;69286;48.222;16.332;2024-01-30T11:40:53;19.00;;;11.77;;
17842;SDS011;69286;48.222;16.332;2024-01-30T11:43:22;20.73;;;11.23;;
17842;SDS011;69286;48.222;16.332;2024-01-30T11:45:49;20.83;;;12.17;;
17842;SDS011;69286;48.222;16.332;2024-01-30T11:48:16;17.67;;;10.40;;
17842;SDS011;69286;48.222;16.332;2024-01-30T11:50:43;22.63;;;11.47;;
17842;SDS011;69286;48.222;16.332;2024-01-30T11:53:10;23.07;;;11.00;;
17842;SDS011;69286;48.222;16.332;2024-01-30T11:55:38;21.60;;;11.20;;
17842;SDS011;69286;48.222;16.332;2024-01-30T11:58:05;15.23;;;9.83;;
17842;SDS011;69286;48.222;16.332;2024-01-30T12:00:33;18.10;;;11.27;;
17842;SDS011;69286;48.222;16.332;2024-01-30T12:03:00;20.37;;;11.00;;
17842;SDS011;69286;48.222;16.332;2024-01-30T12:05:28;18.73;;;11.37;;
17842;SDS011;69286;48.222;16.332;2024-01-30T12:07:55;18.07;;;11.00;;
17842;SDS011;69286;48.222;16.332;2024-01-30T12:10:24;17.20;;;11.13;;
17842;SDS011;69286;48.222;16.332;2024-01-30T12:12:52;21.00;;;11.27;;
17842;SDS011;69286;48.222;16.332;2024-01-30T12:15:21;22.50;;;11.87;;
17842;SDS011;69286;48.222;16.332;2024-01-30T12:17:50;19.37;;;10.97;;
17842;SDS011;69286;48.222;16.332;2024-01-30T12:20:17;18.67;;;10.30;;
17842;SDS011;69286;48.222;16.332;2024-01-30T12:22:46;20.23;;;10.83;;
17842;SDS011;69286;48.222;16.332;2024-01-30T12:25:16;20.77;;;11.80;;
17842;SDS011;69286;48.222;16.332;2024-01-30T12:27:44;20.83;;;11.37;;
17842;SDS011;69286;48.222;16.332;2024-01-30T12:30:15;23.13;;;12.13;;
17842;SDS011;69286;48.222;16.332;2024-01-30T12:32:42;24.73;;;11.53;;
17842;SDS011;69286;48.222;16.332;2024-01-30T12:35:11;22.27;;;11.43;;
17842;SDS011;69286;48.222;16.332;2024-01-30T12:37:39;26.07;;;11.53;;
17842;SDS011;69286;48.222;16.332;2024-01-30T12:40:07;27.47;;;12.50;;
17842;SDS011;69286;48.222;16.332;2024-01-30T12:42:35;17.50;;;10.97;;
17842;SDS011;69286;48.222;16.332;2024-01-30T12:45:02;18.33;;;12.13;;
17842;SDS011;69286;48.222;16.332;2024-01-30T12:47:30;18.90;;;11.03;;
17842;SDS011;69286;48.222;16.332;2024-01-30T12:49:57;21.87;;;11.83;;
17842;SDS011;69286;48.222;16.332;2024-01-30T12:52:25;22.00;;;11.60;;
17842;SDS011;69286;48.222;16.332;2024-01-30T12:54:52;25.00;;;11.07;;
17842;SDS011;69286;48.222;16.332;2024-01-30T12:57:19;22.43;;;12.33;;
17842;SDS011;69286;48.222;16.332;2024-01-30T12:59:46;22.07;;;11.40;;
17842;SDS011;69286;48.222;16.332;2024-01-30T13:02:13;22.13;;;12.20;;
17842;SDS011;69286;48.222;16.332;2024-01-30T13:04:42;20.50;;;11.43;;
17842;SDS011;69286;48.222;16.332;2024-01-30T13:07:09;21.10;;;12.00;;
17842;SDS011;69286;48.222;16.332;2024-01-30T13:09:38;21.40;;;11.63;;
17842;SDS011;69286;48.222;16.332;2024-01-30T13:12:05;22.87;;;12.00;;
17842;SDS011;69286;48.222;16.332;2024-01-30T13:14:33;19.10;;;11.90;;
17842;SDS011;69286;48.222;16.332;2024-01-30T13:17:00;20.47;;;11.43;;
17842;SDS011;69286;48.222;16.332;2024-01-30T13:19:26;20.67;;;11.50;;
17842;SDS011;69286;48.222;16.332;2024-01-30T13:21:53;22.27;;;12.03;;
17842;SDS011;69286;48.222;16.332;2024-01-30T13:24:20;28.43;;;12.27;;
17842;SDS011;69286;48.222;16.332;2024-01-30T13:26:49;24.50;;;12.13;;
17842;SDS011;69286;48.222;16.332;2024-01-30T13:29:16;19.37;;;11.43;;
17842;SDS011;69286;48.222;16.332;2024-01-30T13:31:43;19.60;;;10.97;;
17842;SDS011;69286;48.222;16.332;2024-01-30T13:34:11;20.67;;;11.30;;
17842;SDS011;69286;48.222;16.332;2024-01-30T13:36:39;22.77;;;11.93;;
17842;SDS011;69286;48.222;16.332;2024-01-30T13:39:06;22.53;;;11.20;;
17842;SDS011;69286;48.222;16.332;2024-01-30T13:41:35;21.33;;;11.50;;
17842;SDS011;69286;48.222;16.332;2024-01-30T13:44:04;17.03;;;10.80;;
17842;SDS011;69286;48.222;16.332;2024-01-30T13:46:31;21.60;;;11.37;;
17842;SDS011;69286;48.222;16.332;2024-01-30T13:48:58;21.60;;;11.90;;
17842;SDS011;69286;48.222;16.332;2024-01-30T13:51:25;23.17;;;12.00;;
17842;SDS011;69286;48.222;16.332;2024-01-30T13:53:52;27.60;;;11.57;;
17842;SDS011;69286;48.222;16.332;2024-01-30T13:56:19;19.47;;;12.70;;
17842;SDS011;69286;48.222;16.332;2024-01-30T13:58:47;20.90;;;11.40;;
17842;SDS011;69286;48.222;16.332;2024-01-30T14:01:16;19.30;;;10.97;;
17842;SDS011;69286;48.222;16.332;2024-01-30T14:03:43;20.37;;;11.23;;
17842;SDS011;69286;48.222;16.332;2024-01-30T14:06:10;25.17;;;11.40;;
17842;SDS011;69286;48.222;16.332;2024-01-30T14:08:37;19.73;;;11.53;;
17842;SDS011;69286;48.222;16.332;2024-01-30T14:11:04;27.03;;;11.30;;